<?xml version='1.0' encoding='UTF-8'?><gpx version="1.1" creator="JPX - https://github.com/jenetics/jpx" xmlns="http://www.topografix.com/GPX/1/1"><trk><trkseg><trkpt lat="48.888118964446136" lon="6.433226320272823"><ele>264.0</ele><time>2026-03-27T18:23:31.999Z</time></trkpt><trkpt lat="48.888087468117114" lon="6.433124728582514"><ele>264.0</ele><time>2026-03-27T18:23:32.999Z</time></trkpt><trkpt lat="48.888055448588744" lon="6.432995975276559"><ele>264.0</ele><time>2026-03-27T18:23:33.999Z</time></trkpt><trkpt lat="48.888020256521926" lon="6.432855016638798"><ele>264.0</ele><time>2026-03-27T18:23:34.999Z</time></trkpt><trkpt lat="48.88796988895266" lon="6.432705869810788"><ele>264.0</ele><time>2026-03-27T18:23:35.999Z</time></trkpt><trkpt lat="48.887910648493154" lon="6.4325343056491295"><ele>264.0</ele><time>2026-03-27T18:23:36.999Z</time></trkpt><trkpt lat="48.88785204659687" lon="6.432337138123516"><ele>264.0</ele><time>2026-03-27T18:23:37.999Z</time></trkpt><trkpt lat="48.887783717232885" lon="6.432109167527398"><ele>264.0</ele><time>2026-03-27T18:23:38.999Z</time></trkpt><trkpt lat="48.887706362449094" lon="6.43186540930166"><ele>264.0</ele><time>2026-03-27T18:23:39.999Z</time></trkpt><trkpt lat="48.88762978382366" lon="6.4316208033664"><ele>264.0</ele><time>2026-03-27T18:23:40.999Z</time></trkpt><trkpt lat="48.88755891929713" lon="6.431391387242643"><ele>264.0</ele><time>2026-03-27T18:23:41.999Z</time></trkpt><trkpt lat="48.88748482772393" lon="6.43117127565625"><ele>264.0</ele><time>2026-03-27T18:23:42.999Z</time></trkpt><trkpt lat="48.88742662722719" lon="6.430955584552845"><ele>264.0</ele><time>2026-03-27T18:23:43.999Z</time></trkpt><trkpt lat="48.887337934906654" lon="6.430742515146777"><ele>264.0</ele><time>2026-03-27T18:23:44.999Z</time></trkpt><trkpt lat="48.88725364225236" lon="6.4304895909047115"><ele>264.0</ele><time>2026-03-27T18:23:45.999Z</time></trkpt><trkpt lat="48.88711992430589" lon="6.430251718864063"><ele>264.0</ele><time>2026-03-27T18:23:46.999Z</time></trkpt><trkpt lat="48.88698918304752" lon="6.430000945420127"><ele>264.0</ele><time>2026-03-27T18:23:47.999Z</time></trkpt><trkpt lat="48.88685702773355" lon="6.429732550387595"><ele>265.0</ele><time>2026-03-27T18:23:48.999Z</time></trkpt><trkpt lat="48.88671624134592" lon="6.429474572515605"><ele>266.0</ele><time>2026-03-27T18:23:49.999Z</time></trkpt><trkpt lat="48.88658020399442" lon="6.4292125885309215"><ele>267.0</ele><time>2026-03-27T18:23:50.999Z</time></trkpt><trkpt lat="48.8864533375385" lon="6.428971551709006"><ele>266.6666666666667</ele><time>2026-03-27T18:23:51.999Z</time></trkpt><trkpt lat="48.88633456841754" lon="6.428749141062442"><ele>266.33333333333337</ele><time>2026-03-27T18:23:52.999Z</time></trkpt><trkpt lat="48.88623298844583" lon="6.4285318489987535"><ele>266.0</ele><time>2026-03-27T18:23:53.999Z</time></trkpt><trkpt lat="48.88613721334389" lon="6.428352710673869"><ele>266.0</ele><time>2026-03-27T18:23:54.999Z</time></trkpt><trkpt lat="48.886040506933156" lon="6.428174749117314"><ele>266.0</ele><time>2026-03-27T18:23:55.999Z</time></trkpt><trkpt lat="48.88595558253415" lon="6.428031833634644"><ele>266.0</ele><time>2026-03-27T18:23:56.999Z</time></trkpt><trkpt lat="48.885883254230826" lon="6.427905926806447"><ele>266.0</ele><time>2026-03-27T18:23:57.999Z</time></trkpt><trkpt lat="48.88582411192459" lon="6.427799204287053"><ele>266.0</ele><time>2026-03-27T18:23:58.999Z</time></trkpt><trkpt lat="48.88577307575391" lon="6.427713805416489"><ele>266.0</ele><time>2026-03-27T18:23:59.999Z</time></trkpt><trkpt lat="48.88571255208638" lon="6.427597461082953"><ele>266.0</ele><time>2026-03-27T18:24:01.999Z</time></trkpt><trkpt lat="48.88571200944593" lon="6.427695679677782"><ele>266.0</ele><time>2026-03-27T18:24:12.999Z</time></trkpt><trkpt lat="48.885793486215434" lon="6.4278420314726965"><ele>266.0</ele><time>2026-03-27T18:24:14.999Z</time></trkpt><trkpt lat="48.88587131536392" lon="6.427984405307826"><ele>266.0</ele><time>2026-03-27T18:24:15.999Z</time></trkpt><trkpt lat="48.885969177828656" lon="6.428165870355089"><ele>266.0</ele><time>2026-03-27T18:24:16.999Z</time></trkpt><trkpt lat="48.886077877416255" lon="6.428396135120908"><ele>266.0</ele><time>2026-03-27T18:24:17.999Z</time></trkpt><trkpt lat="48.88618943455525" lon="6.428621854403576"><ele>266.33333333333337</ele><time>2026-03-27T18:24:18.999Z</time></trkpt><trkpt lat="48.886312533671536" lon="6.428842957549807"><ele>266.6666666666667</ele><time>2026-03-27T18:24:19.999Z</time></trkpt><trkpt lat="48.886432480423686" lon="6.429079749995742"><ele>267.0</ele><time>2026-03-27T18:24:20.999Z</time></trkpt><trkpt lat="48.886557266860535" lon="6.429323538498268"><ele>267.0</ele><time>2026-03-27T18:24:21.999Z</time></trkpt><trkpt lat="48.88668276666792" lon="6.429572450674649"><ele>267.0</ele><time>2026-03-27T18:24:22.999Z</time></trkpt><trkpt lat="48.886807623829725" lon="6.429810001760455"><ele>267.0</ele><time>2026-03-27T18:24:23.999Z</time></trkpt><trkpt lat="48.88693718288068" lon="6.43004491853747"><ele>266.0</ele><time>2026-03-27T18:24:24.999Z</time></trkpt><trkpt lat="48.88706635839335" lon="6.430277883394529"><ele>265.0</ele><time>2026-03-27T18:24:25.999Z</time></trkpt><trkpt lat="48.88719914457305" lon="6.430532933621572"><ele>264.0</ele><time>2026-03-27T18:24:26.999Z</time></trkpt><trkpt lat="48.88731168676984" lon="6.430752443793938"><ele>264.0</ele><time>2026-03-27T18:24:27.999Z</time></trkpt><trkpt lat="48.88741448645921" lon="6.430992778745491"><ele>264.0</ele><time>2026-03-27T18:24:28.999Z</time></trkpt><trkpt lat="48.887492147421135" lon="6.431258771007996"><ele>264.0</ele><time>2026-03-27T18:24:29.999Z</time></trkpt><trkpt lat="48.887580108913184" lon="6.431542072669948"><ele>264.0</ele><time>2026-03-27T18:24:30.999Z</time></trkpt><trkpt lat="48.88767119002033" lon="6.431841792203679"><ele>264.0</ele><time>2026-03-27T18:24:31.999Z</time></trkpt><trkpt lat="48.88776043510544" lon="6.432156652720914"><ele>264.0</ele><time>2026-03-27T18:24:32.999Z</time></trkpt><trkpt lat="48.88786981424343" lon="6.432474065612201"><ele>264.0</ele><time>2026-03-27T18:24:33.999Z</time></trkpt><trkpt lat="48.887952504809924" lon="6.432803796040988"><ele>264.0</ele><time>2026-03-27T18:24:34.999Z</time></trkpt><trkpt lat="48.8880429673993" lon="6.433084979284562"><ele>264.0</ele><time>2026-03-27T18:24:35.999Z</time></trkpt><trkpt lat="48.888116567257725" lon="6.433358408516097"><ele>264.0</ele><time>2026-03-27T18:24:36.999Z</time></trkpt><trkpt lat="48.888190509681294" lon="6.433659833536296"><ele>264.0</ele><time>2026-03-27T18:24:37.999Z</time></trkpt><trkpt lat="48.888227870092784" lon="6.433931887333524"><ele>264.0</ele><time>2026-03-27T18:24:38.999Z</time></trkpt><trkpt lat="48.88826974580199" lon="6.434136135971144"><ele>263.5</ele><time>2026-03-27T18:24:39.999Z</time></trkpt><trkpt lat="48.888326017278445" lon="6.434344189588687"><ele>263.0</ele><time>2026-03-27T18:24:40.999Z</time></trkpt><trkpt lat="48.88836225559593" lon="6.434523639046627"><ele>262.5</ele><time>2026-03-27T18:24:42Z</time></trkpt><trkpt lat="48.888381525159886" lon="6.434681976737892"><ele>262.0</ele><time>2026-03-27T18:24:43Z</time></trkpt><trkpt lat="48.888419355713204" lon="6.434817650664031"><ele>261.66666666666663</ele><time>2026-03-27T18:24:44Z</time></trkpt><trkpt lat="48.88842536309894" lon="6.4349360112282135"><ele>261.3333333333333</ele><time>2026-03-27T18:24:45Z</time></trkpt><trkpt lat="48.8884602022105" lon="6.435024505292125"><ele>261.0</ele><time>2026-03-27T18:24:46Z</time></trkpt><trkpt lat="48.88847396465734" lon="6.435136679342199"><ele>260.6666666666667</ele><time>2026-03-27T18:24:47Z</time></trkpt><trkpt lat="48.88851232341492" lon="6.435287188064586"><ele>260.33333333333337</ele><time>2026-03-27T18:24:49Z</time></trkpt><trkpt lat="48.88853686017552" lon="6.435382187361455"><ele>260.0</ele><time>2026-03-27T18:24:51Z</time></trkpt><trkpt lat="48.88864291103585" lon="6.435314426000521"><ele>260.0</ele><time>2026-03-27T18:24:56Z</time></trkpt><trkpt lat="48.88856008451273" lon="6.43512189268914"><ele>260.0</ele><time>2026-03-27T18:24:58Z</time></trkpt><trkpt lat="48.888505325389765" lon="6.435031262883646"><ele>260.0</ele><time>2026-03-27T18:24:59Z</time></trkpt><trkpt lat="48.88845857712789" lon="6.4349031424287935"><ele>260.0</ele><time>2026-03-27T18:25:00Z</time></trkpt><trkpt lat="48.888414066832134" lon="6.434734331598622"><ele>260.0</ele><time>2026-03-27T18:25:01Z</time></trkpt><trkpt lat="48.88837562826819" lon="6.434509590144151"><ele>260.5</ele><time>2026-03-27T18:25:02Z</time></trkpt><trkpt lat="48.88833371485831" lon="6.434271062813853"><ele>261.0</ele><time>2026-03-27T18:25:03Z</time></trkpt><trkpt lat="48.88829158528244" lon="6.434066457373345"><ele>261.5</ele><time>2026-03-27T18:25:04Z</time></trkpt><trkpt lat="48.88825264071665" lon="6.4338925603217145"><ele>262.0</ele><time>2026-03-27T18:25:05Z</time></trkpt><trkpt lat="48.88823952339427" lon="6.433777972727086"><ele>264.0</ele><time>2026-03-27T18:25:06Z</time></trkpt><trkpt lat="48.88821999772771" lon="6.433646473865286"><ele>264.0</ele><time>2026-03-27T18:25:08Z</time></trkpt><trkpt lat="48.88820344282173" lon="6.433534131491821"><ele>264.0</ele><time>2026-03-27T18:25:10Z</time></trkpt></trkseg></trk></gpx>